ENBN/BNN METAR and TAF weather

Enter ICAO airport designator
Station Type Date Time Source
ENBN METAR 2021/09/16 20:50 UTC NOAA

ENBN 162050Z 13010KT 100V160 9999 -RA FEW040 BKN060 11/08 Q1018


Station Type Date Time Source
ENBN Decoded METAR 2021/09/16 20:50 UTC NOAA

Bronnoysund / Bronnoy, Norway (ENBN) 65-28N 012-13E 9M
Sep 16, 2021 - 04:50 PM EDT / 2021.09.16 2050 UTC
Wind: from the SE (130 degrees) at 12 MPH (10 KT) (direction variable):0
Visibility: greater than 7 mile(s):0
Sky conditions: mostly cloudy
Weather: light rain
Temperature: 51 F (11 C)
Dew Point: 46 F (8 C)
Relative Humidity: 81%
Pressure (altimeter): 30.06 in. Hg (1018 hPa)
ob: ENBN 162050Z 13010KT 100V160 9999 -RA FEW040 BKN060 11/08 Q1018
cycle: 21

Station Type Date Time Source
ENBN TAF 2011/03/27 18:12 UTC NOAA

TAF TAF ENBN 261700Z 2618/2718 CNL

Example: see airport list